createdAt,value
2019-05-19T00:00:26.624Z,12.40
2019-05-19T00:05:27.718Z,12.30
2019-05-19T00:10:28.839Z,12.20
2019-05-19T00:15:29.966Z,12.10
2019-05-19T00:20:31.058Z,12.10
2019-05-19T00:25:32.873Z,12.10
2019-05-19T00:30:33.990Z,12.00
2019-05-19T00:35:35.093Z,12.10
2019-05-19T00:40:36.280Z,12.00
2019-05-19T00:45:37.394Z,12.00
2019-05-19T00:50:38.697Z,12.00
2019-05-19T00:55:40.197Z,11.90
2019-05-19T01:00:41.398Z,11.90
2019-05-19T01:05:42.504Z,11.90
2019-05-19T01:10:43.723Z,11.80
2019-05-19T01:15:44.836Z,11.80
2019-05-19T01:20:46.148Z,11.80
2019-05-19T01:25:47.224Z,11.80
2019-05-19T01:30:48.381Z,11.70
2019-05-19T01:35:49.527Z,11.70
2019-05-19T01:40:50.627Z,11.60
2019-05-19T01:45:51.813Z,11.50
2019-05-19T01:50:52.914Z,11.50
2019-05-19T01:55:54.023Z,11.40
2019-05-19T02:00:55.211Z,11.50
2019-05-19T02:05:56.426Z,11.50
2019-05-19T02:10:57.540Z,11.50
2019-05-19T02:15:58.636Z,11.50
2019-05-19T02:20:59.719Z,11.50
2019-05-19T02:26:00.842Z,11.60
2019-05-19T02:31:02.029Z,11.60
2019-05-19T02:36:03.150Z,11.60
2019-05-19T02:41:06.053Z,11.60
2019-05-19T02:46:08.349Z,11.60
2019-05-19T02:51:10.536Z,11.60
2019-05-19T02:56:11.846Z,11.50
2019-05-19T03:01:12.979Z,11.50
2019-05-19T03:06:14.090Z,11.40
2019-05-19T03:11:15.228Z,11.30
2019-05-19T03:16:16.319Z,11.30
2019-05-19T03:21:17.407Z,11.20
2019-05-19T03:26:18.505Z,11.10
2019-05-19T03:31:21.496Z,11.10
2019-05-19T03:36:22.587Z,11.10
2019-05-19T03:41:23.683Z,11.10
2019-05-19T03:46:24.785Z,11.10
2019-05-19T03:51:31.010Z,11.00
2019-05-19T03:56:28.873Z,10.90
2019-05-19T04:01:29.968Z,10.80
2019-05-19T04:06:31.060Z,10.70
2019-05-19T04:11:32.179Z,10.60
2019-05-19T04:16:33.294Z,10.50
2019-05-19T04:21:48.029Z,10.40
2019-05-19T04:26:37.360Z,10.40
2019-05-19T04:31:38.452Z,10.40
2019-05-19T04:36:39.535Z,10.50
2019-05-19T04:41:40.662Z,10.60
2019-05-19T04:46:41.826Z,10.80
2019-05-19T04:51:42.933Z,11.10
2019-05-19T04:56:44.007Z,11.30
2019-05-19T05:01:45.100Z,11.40
2019-05-19T05:06:46.196Z,11.70
2019-05-19T05:11:47.530Z,11.90
2019-05-19T05:16:48.627Z,12.10
2019-05-19T05:21:49.727Z,12.30
2019-05-19T05:26:50.917Z,12.50
2019-05-19T05:31:52.004Z,12.70
2019-05-19T05:36:53.106Z,13.00
2019-05-19T05:41:54.226Z,13.10
2019-05-19T05:46:55.325Z,13.40
2019-05-19T05:51:56.427Z,13.60
2019-05-19T05:56:57.524Z,13.80
2019-05-19T06:01:58.603Z,14.10
2019-05-19T06:06:59.702Z,14.40
2019-05-19T06:12:00.834Z,14.60
2019-05-19T06:17:01.922Z,14.80
2019-05-19T06:22:03.218Z,14.90
2019-05-19T06:27:04.311Z,14.90
2019-05-19T06:32:07.371Z,15.10
2019-05-19T06:37:08.485Z,15.10
2019-05-19T06:42:09.575Z,15.40
2019-05-19T06:47:10.689Z,15.60
2019-05-19T06:52:11.908Z,15.70
2019-05-19T06:57:13.016Z,15.60
2019-05-19T07:02:14.212Z,15.60
2019-05-19T07:07:15.331Z,15.70
2019-05-19T07:12:16.446Z,16.00
2019-05-19T07:17:17.544Z,16.20
2019-05-19T07:22:18.631Z,16.40
2019-05-19T07:27:19.738Z,16.40
2019-05-19T07:32:20.827Z,16.50
2019-05-19T07:37:21.974Z,16.70
2019-05-19T07:42:23.078Z,17.00
2019-05-19T07:47:24.172Z,16.70
2019-05-19T07:52:25.324Z,16.80
2019-05-19T07:57:26.433Z,16.80
2019-05-19T08:02:27.561Z,17.00
2019-05-19T08:07:28.673Z,17.60
2019-05-19T08:12:29.805Z,17.80
2019-05-19T08:17:30.941Z,18.10
2019-05-19T08:22:32.035Z,18.60
2019-05-19T08:27:33.169Z,19.00
2019-05-19T08:32:34.450Z,19.00
2019-05-19T08:37:35.556Z,19.30
2019-05-19T08:42:36.669Z,19.20
2019-05-19T08:47:37.782Z,19.40
2019-05-19T08:52:39.016Z,19.30
2019-05-19T08:57:40.131Z,19.60
2019-05-19T09:02:41.222Z,20.20
2019-05-19T09:07:42.340Z,19.80
2019-05-19T09:12:43.465Z,19.30
2019-05-19T09:17:44.566Z,19.00
2019-05-19T09:22:45.672Z,19.00
2019-05-19T09:27:46.875Z,19.10
2019-05-19T09:32:47.997Z,19.90
2019-05-19T09:37:49.209Z,21.20
2019-05-19T09:42:50.424Z,21.60
2019-05-19T09:47:51.547Z,20.40
2019-05-19T09:52:52.778Z,19.70
2019-05-19T09:57:53.872Z,20.40
2019-05-19T10:02:55.371Z,21.40
2019-05-19T10:07:56.536Z,21.70
2019-05-19T10:12:58.039Z,22.90
2019-05-19T10:17:59.190Z,22.80
2019-05-19T10:23:00.326Z,23.30
2019-05-19T10:28:01.490Z,23.30
2019-05-19T10:33:02.749Z,23.70
2019-05-19T10:38:04.056Z,24.30
2019-05-19T10:43:05.154Z,25.30
2019-05-19T10:48:06.302Z,24.60
2019-05-19T10:53:07.411Z,24.20
2019-05-19T10:58:08.531Z,24.30
2019-05-19T11:03:09.635Z,24.20
2019-05-19T11:08:10.765Z,24.10
2019-05-19T11:13:11.896Z,23.00
2019-05-19T11:18:12.993Z,22.20
2019-05-19T11:23:14.110Z,21.70
2019-05-19T11:28:15.199Z,22.30
2019-05-19T11:33:16.326Z,24.70
2019-05-19T11:38:17.527Z,25.40
2019-05-19T11:43:18.627Z,24.90
2019-05-19T11:48:19.758Z,24.90
2019-05-19T11:53:20.885Z,25.10
2019-05-19T11:58:22.092Z,24.90
2019-05-19T12:03:23.223Z,24.10
2019-05-19T12:08:24.329Z,24.10
2019-05-19T12:13:25.456Z,26.60
2019-05-19T12:18:26.578Z,28.90
2019-05-19T12:23:27.677Z,31.50
2019-05-19T12:28:28.804Z,29.80
2019-05-19T12:33:30.016Z,27.60
2019-05-19T12:38:31.122Z,25.70
2019-05-19T12:43:32.324Z,25.20
2019-05-19T12:48:33.562Z,25.50
2019-05-19T12:53:34.829Z,28.80
2019-05-19T12:58:36.036Z,31.60
2019-05-19T13:03:37.104Z,28.20
2019-05-19T13:08:38.221Z,28.70
2019-05-19T13:13:39.409Z,31.00
2019-05-19T13:18:40.508Z,32.80
2019-05-19T13:23:41.614Z,34.00
2019-05-19T13:28:42.732Z,33.10
2019-05-19T13:33:43.949Z,33.60
2019-05-19T13:38:45.166Z,33.50
2019-05-19T13:43:46.296Z,31.80
2019-05-19T13:48:47.386Z,30.10
2019-05-19T13:53:48.509Z,26.60
2019-05-19T13:58:49.637Z,24.70
2019-05-19T14:03:52.228Z,23.50
2019-05-19T14:08:53.677Z,22.50
2019-05-19T14:13:54.769Z,22.40
2019-05-19T14:18:55.868Z,23.30
2019-05-19T14:23:57.010Z,24.90
2019-05-19T14:28:58.136Z,25.90
2019-05-19T14:33:59.319Z,26.20
2019-05-19T14:39:05.144Z,26.80
2019-05-19T14:44:03.937Z,27.10
2019-05-19T14:49:05.053Z,26.50
2019-05-19T14:54:06.177Z,27.30
2019-05-19T14:59:07.300Z,27.00
2019-05-19T15:04:08.388Z,26.40
2019-05-19T15:09:09.768Z,25.60
2019-05-19T15:14:11.111Z,24.20
2019-05-19T15:19:12.244Z,22.90
2019-05-19T15:24:13.329Z,21.90
2019-05-19T15:29:14.431Z,21.40
2019-05-19T15:34:15.548Z,20.70
2019-05-19T15:39:16.754Z,19.70
2019-05-19T15:44:17.902Z,18.70
2019-05-19T15:49:18.992Z,17.70
2019-05-19T15:54:20.095Z,17.00
2019-05-19T15:59:21.201Z,16.50
2019-05-19T16:04:22.722Z,16.00
2019-05-19T16:09:23.870Z,15.80
2019-05-19T16:14:25.221Z,15.70
2019-05-19T16:19:26.397Z,15.60
2019-05-19T16:24:27.680Z,15.50
2019-05-19T16:29:28.879Z,15.40
2019-05-19T16:34:30.000Z,15.50
2019-05-19T16:39:31.100Z,15.60
2019-05-19T16:44:32.225Z,15.60
2019-05-19T16:49:33.448Z,15.60
2019-05-19T16:54:36.766Z,15.70
2019-05-19T16:59:37.869Z,15.70
2019-05-19T17:04:39.011Z,15.80
2019-05-19T17:09:40.120Z,15.80
2019-05-19T17:14:41.254Z,15.80
2019-05-19T17:19:42.463Z,15.70
2019-05-19T17:24:43.578Z,15.60
2019-05-19T17:29:44.695Z,15.40
2019-05-19T17:34:45.809Z,15.20
2019-05-19T17:39:47.029Z,15.00
2019-05-19T17:44:48.752Z,14.80
2019-05-19T17:49:51.264Z,14.70
2019-05-19T17:54:53.148Z,14.60
2019-05-19T17:59:54.716Z,14.40
2019-05-19T18:04:55.841Z,14.30
2019-05-19T18:09:57.074Z,14.20
2019-05-19T18:14:58.537Z,14.20
2019-05-19T18:20:00.029Z,14.20
2019-05-19T18:25:01.813Z,14.10
2019-05-19T18:30:04.264Z,14.00
2019-05-19T18:35:05.830Z,14.00
2019-05-19T18:40:07.809Z,13.80
2019-05-19T18:45:09.484Z,13.80
2019-05-19T18:50:11.109Z,13.60
2019-05-19T18:55:12.637Z,13.60
2019-05-19T19:00:17.583Z,13.60
2019-05-19T19:05:18.838Z,13.60
2019-05-19T19:10:20.261Z,13.60
2019-05-19T19:15:21.500Z,13.50
2019-05-19T19:20:22.702Z,13.50
2019-05-19T19:25:24.039Z,13.40
2019-05-19T19:30:26.617Z,13.30
2019-05-19T19:35:38.304Z,13.30
2019-05-19T19:40:32.385Z,13.30
2019-05-19T19:45:33.481Z,13.20
2019-05-19T19:50:34.665Z,13.30
2019-05-19T19:55:35.938Z,13.40
2019-05-19T20:00:40.046Z,13.50
2019-05-19T20:05:41.473Z,13.50
2019-05-19T20:10:42.715Z,13.40
2019-05-19T20:15:43.842Z,13.40
2019-05-19T20:20:44.943Z,13.30
2019-05-19T20:25:46.161Z,13.20
2019-05-19T20:30:47.277Z,13.10
2019-05-19T20:35:48.494Z,13.00
2019-05-19T20:40:49.699Z,12.90
2019-05-19T20:45:50.812Z,12.90
2019-05-19T20:50:51.916Z,12.80
2019-05-19T20:55:53.044Z,12.80
2019-05-19T21:00:54.153Z,12.80
2019-05-19T21:05:55.252Z,12.70
2019-05-19T21:10:56.336Z,12.70
2019-05-19T21:15:57.473Z,12.70
2019-05-19T21:20:58.559Z,12.70
2019-05-19T21:25:59.751Z,12.70
2019-05-19T21:31:05.782Z,12.60
2019-05-19T21:36:03.881Z,12.50
2019-05-19T21:41:05.003Z,12.50
2019-05-19T21:46:06.683Z,12.50
2019-05-19T21:51:07.909Z,12.40
2019-05-19T21:56:09.186Z,12.40
2019-05-19T22:01:22.722Z,12.40
2019-05-19T22:06:14.144Z,12.40
2019-05-19T22:11:15.222Z,12.40
2019-05-19T22:16:16.322Z,12.40
2019-05-19T22:21:17.402Z,12.50
2019-05-19T22:26:18.495Z,12.40
2019-05-19T22:31:19.616Z,12.40
2019-05-19T22:36:20.712Z,12.30
2019-05-19T22:41:21.913Z,12.30
2019-05-19T22:46:23.117Z,12.30
2019-05-19T22:51:25.004Z,12.30
2019-05-19T22:56:26.113Z,12.20
2019-05-19T23:01:27.216Z,12.20
2019-05-19T23:06:28.332Z,12.30
2019-05-19T23:11:29.419Z,12.30
2019-05-19T23:16:30.511Z,12.30
2019-05-19T23:21:34.412Z,12.30
2019-05-19T23:26:34.710Z,12.30
2019-05-19T23:31:35.844Z,12.30
2019-05-19T23:36:36.929Z,12.20
2019-05-19T23:41:38.025Z,12.20
2019-05-19T23:46:39.129Z,12.20
2019-05-19T23:51:40.211Z,12.20
2019-05-19T23:56:41.318Z,12.30
